Time;durP1;ratioP1;P1;durP2;ratioP2;P2;SDS_P1;SDS_P2;PMS_P1;PMS_P2;Temp;Humidity;BMP_temperature;BMP_pressure;BME280_temperature;BME280_humidity;BME280_pressure;Samples;Min_cycle;Max_cycle;Signal;HPM_P1;HPM_P2
2022/07/08 00:01:02;;;;;;;67.37;5.80;;;16.90;53.30;;;;;;5084906;28;20449;-86
2022/07/08 00:03:28;;;;;;;68.50;5.70;;;16.90;54.10;;;;;;5102299;28;20220;-86
2022/07/08 00:05:54;;;;;;;71.00;5.77;;;16.90;54.40;;;;;;5083834;28;20175;-86
2022/07/08 00:08:19;;;;;;;67.10;4.90;;;16.80;55.30;;;;;;5102230;28;20205;-86
2022/07/08 00:10:46;;;;;;;71.27;5.77;;;16.80;54.90;;;;;;5084346;28;20174;-85
2022/07/08 00:13:11;;;;;;;70.67;6.60;;;16.80;56.10;;;;;;5102251;28;20170;-86
2022/07/08 00:15:37;;;;;;;68.50;6.17;;;16.70;59.10;;;;;;5103100;28;20401;-86
2022/07/08 00:18:03;;;;;;;69.07;7.70;;;16.50;63.00;;;;;;5084122;28;20198;-86
2022/07/08 00:20:29;;;;;;;71.30;8.70;;;16.50;64.30;;;;;;5083964;28;20752;-86
2022/07/08 00:22:55;;;;;;;69.67;8.37;;;16.50;66.70;;;;;;5083963;28;20472;-86
2022/07/08 00:25:20;;;;;;;71.30;7.70;;;16.50;68.00;;;;;;5083544;28;20252;-85
2022/07/08 00:27:46;;;;;;;68.27;7.17;;;16.50;67.50;;;;;;5083436;28;21020;-86
2022/07/08 00:30:12;;;;;;;68.17;7.03;;;16.60;65.10;;;;;;5083480;28;20169;-86
2022/07/08 00:32:38;;;;;;;67.77;5.87;;;16.70;62.80;;;;;;5083051;28;20194;-86
2022/07/08 00:35:05;;;;;;;66.30;6.17;;;16.70;64.40;;;;;;5101779;28;20410;-86
2022/07/08 00:37:31;;;;;;;75.17;7.17;;;16.70;63.30;;;;;;5101697;28;20496;-86
2022/07/08 00:39:56;;;;;;;70.80;7.70;;;16.70;64.40;;;;;;5101168;28;20445;-85
2022/07/08 00:42:22;;;;;;;67.30;6.33;;;16.80;63.00;;;;;;5083293;28;20417;-86
2022/07/08 00:44:48;;;;;;;69.67;6.73;;;16.80;61.40;;;;;;5101630;28;20191;-86
2022/07/08 00:47:14;;;;;;;68.50;6.00;;;16.80;62.40;;;;;;5101121;28;20187;-86
2022/07/08 00:49:40;;;;;;;68.77;5.47;;;16.80;63.40;;;;;;5101889;28;20163;-86
2022/07/08 00:52:07;;;;;;;67.90;5.90;;;16.90;63.20;;;;;;5102984;28;20621;-86
2022/07/08 00:54:32;;;;;;;67.80;6.10;;;17.00;61.20;;;;;;5083395;28;20459;-86
2022/07/08 00:56:59;;;;;;;70.50;6.60;;;17.00;60.30;;;;;;5082927;28;20425;-86
2022/07/08 00:59:26;;;;;;;68.27;6.83;;;17.10;59.50;;;;;;5100242;28;20397;-86
2022/07/08 01:01:52;;;;;;;71.63;7.00;;;17.00;60.30;;;;;;5101109;28;20412;-86
2022/07/08 01:04:18;;;;;;;69.13;6.13;;;17.00;63.80;;;;;;5100783;28;20465;-86
2022/07/08 01:06:45;;;;;;;71.17;7.10;;;17.00;62.70;;;;;;5100451;28;20397;-86
2022/07/08 01:09:14;;;;;;;69.57;6.60;;;17.00;63.90;;;;;;5101709;28;20481;-86
2022/07/08 01:11:42;;;;;;;68.40;6.27;;;17.00;64.30;;;;;;5082616;28;20413;-85
2022/07/08 01:14:08;;;;;;;67.37;6.47;;;17.00;62.70;;;;;;5101893;28;20916;-85
2022/07/08 01:16:33;;;;;;;67.67;6.10;;;17.00;64.40;;;;;;5082780;28;20423;-85
2022/07/08 01:18:59;;;;;;;72.03;5.87;;;17.00;64.50;;;;;;5100883;28;20405;-86
2022/07/08 01:21:25;;;;;;;68.10;6.13;;;17.00;66.40;;;;;;5082458;28;20203;-86
2022/07/08 01:23:50;;;;;;;66.80;5.97;;;17.00;68.50;;;;;;5082802;28;20258;-86
2022/07/08 01:26:16;;;;;;;70.17;7.57;;;17.00;70.80;;;;;;5082344;28;20177;-86
2022/07/08 01:28:43;;;;;;;73.93;9.10;;;16.80;73.20;;;;;;5082587;28;20577;-86
2022/07/08 01:31:09;;;;;;;70.20;7.57;;;16.80;75.10;;;;;;5099958;28;20425;-86
2022/07/08 01:33:35;;;;;;;71.30;11.57;;;16.70;79.10;;;;;;5100080;28;20915;-86
2022/07/08 01:36:01;;;;;;;70.87;10.00;;;16.70;80.50;;;;;;5100467;28;20405;-85
2022/07/08 01:38:27;;;;;;;69.20;11.47;;;16.70;80.60;;;;;;5100519;28;20424;-86
2022/07/08 01:40:52;;;;;;;72.23;12.60;;;16.70;81.50;;;;;;5100267;28;20206;-86
2022/07/08 01:43:18;;;;;;;73.83;12.80;;;16.50;84.40;;;;;;5100711;28;20178;-86
2022/07/08 01:45:44;;;;;;;67.30;11.43;;;16.60;84.10;;;;;;5081967;28;20596;-86
2022/07/08 01:48:09;;;;;;;70.40;15.83;;;16.60;84.50;;;;;;5100200;28;20186;-86
2022/07/08 01:50:35;;;;;;;73.20;21.30;;;16.40;90.10;;;;;;5083136;28;20692;-86
2022/07/08 01:53:01;;;;;;;70.60;19.47;;;16.30;92.10;;;;;;5100686;28;20248;-86
2022/07/08 01:55:27;;;;;;;70.60;14.87;;;16.30;91.00;;;;;;5082180;28;20243;-86
2022/07/08 01:57:52;;;;;;;71.90;17.60;;;16.40;88.10;;;;;;5081507;28;20607;-86
2022/07/08 02:00:18;;;;;;;72.37;18.50;;;16.40;89.20;;;;;;5099880;28;20217;-86
2022/07/08 02:02:45;;;;;;;73.50;16.67;;;16.40;89.60;;;;;;5082229;28;20177;-85
2022/07/08 02:05:11;;;;;;;69.80;13.60;;;16.40;88.70;;;;;;5100612;28;20408;-86
2022/07/08 02:07:38;;;;;;;75.00;15.37;;;16.50;86.70;;;;;;5081715;28;20527;-85
2022/07/08 02:10:05;;;;;;;70.87;13.47;;;16.50;86.60;;;;;;5100469;28;20496;-86
2022/07/08 02:12:30;;;;;;;70.00;12.37;;;16.60;85.80;;;;;;5099742;28;20401;-86
2022/07/08 02:15:01;;;;;;;69.23;12.00;;;16.60;83.20;;;;;;5100181;28;20432;-86
2022/07/08 02:17:29;;;;;;;69.43;13.20;;;16.60;81.80;;;;;;5084382;28;20195;-86
2022/07/08 02:19:55;;;;;;;70.73;14.50;;;16.60;82.10;;;;;;5103884;28;20554;-86
2022/07/08 02:22:21;;;;;;;70.53;15.17;;;16.60;82.50;;;;;;5105666;28;20403;-85
2022/07/08 02:24:49;;;;;;;70.20;15.30;;;16.50;84.40;;;;;;5085901;28;20408;-86
2022/07/08 02:27:15;;;;;;;70.40;18.07;;;16.40;84.50;;;;;;5084741;28;20498;-86
2022/07/08 02:29:41;;;;;;;70.40;17.90;;;16.30;88.20;;;;;;5103623;28;20405;-86
2022/07/08 02:32:07;;;;;;;70.77;19.40;;;16.30;87.50;;;;;;5177226;22;20990;-82
2022/07/08 02:34:33;;;;;;;74.87;16.53;;;16.30;88.70;;;;;;5105750;28;20229;-82
2022/07/08 02:36:59;;;;;;;71.20;15.57;;;16.30;90.10;;;;;;5104808;28;20907;-82
2022/07/08 02:39:24;;;;;;;71.67;16.10;;;16.40;86.60;;;;;;5105302;28;20172;-82
2022/07/08 02:41:51;;;;;;;73.10;14.97;;;16.40;87.00;;;;;;5106059;28;20408;-83
2022/07/08 02:44:18;;;;;;;71.80;13.70;;;16.50;84.20;;;;;;5105399;28;20191;-83
2022/07/08 02:46:44;;;;;;;69.37;11.40;;;16.50;83.70;;;;;;5104468;28;20389;-82
2022/07/08 02:49:10;;;;;;;71.93;12.60;;;16.50;82.00;;;;;;5085113;28;20416;-83
2022/07/08 02:51:36;;;;;;;72.97;12.93;;;16.50;82.80;;;;;;5105384;28;20426;-81
2022/07/08 02:54:04;;;;;;;75.40;12.77;;;16.50;83.20;;;;;;5105632;28;20443;-82
2022/07/08 02:56:30;;;;;;;71.13;12.93;;;16.40;87.00;;;;;;5103570;28;20413;-81
2022/07/08 02:58:56;;;;;;;71.63;11.17;;;16.40;85.20;;;;;;5105454;28;20487;-83
2022/07/08 03:01:21;;;;;;;69.70;14.20;;;16.40;84.10;;;;;;5105398;28;20471;-83
2022/07/08 03:03:47;;;;;;;74.17;13.40;;;16.40;86.40;;;;;;5104079;28;20240;-82
2022/07/08 03:06:13;;;;;;;68.63;12.77;;;16.30;87.40;;;;;;5104314;28;20166;-82
2022/07/08 03:08:39;;;;;;;73.00;12.90;;;16.30;87.00;;;;;;5103457;28;20434;-82
2022/07/08 03:11:05;;;;;;;76.60;12.97;;;16.30;88.40;;;;;;5104748;28;20163;-83
2022/07/08 03:13:31;;;;;;;67.90;11.50;;;16.30;89.40;;;;;;5103242;28;20397;-82
2022/07/08 03:15:57;;;;;;;73.33;12.87;;;16.30;88.50;;;;;;5105172;28;20895;-82
2022/07/08 03:18:23;;;;;;;73.97;11.80;;;16.20;90.10;;;;;;5103954;28;20175;-83
2022/07/08 03:20:49;;;;;;;69.40;14.37;;;16.10;90.60;;;;;;5087317;28;20452;-82
2022/07/08 03:23:15;;;;;;;80.43;18.50;;;16.10;91.30;;;;;;5086014;28;20425;-82
2022/07/08 03:25:41;;;;;;;79.43;16.10;;;16.10;92.00;;;;;;5105008;28;20159;-82
2022/07/08 03:28:06;;;;;;;72.80;18.17;;;16.10;92.60;;;;;;5104050;28;20934;-82
2022/07/08 03:30:32;;;;;;;70.53;17.17;;;16.00;93.70;;;;;;5103135;28;20175;-82
2022/07/08 03:32:58;;;;;;;76.07;20.07;;;16.10;93.60;;;;;;5084785;28;20283;-83
2022/07/08 03:35:23;;;;;;;70.20;16.80;;;16.10;93.40;;;;;;5086485;28;20175;-82
2022/07/08 03:37:49;;;;;;;69.47;15.30;;;16.20;92.50;;;;;;5103207;28;20192;-83
2022/07/08 03:43:00;;;;;;;72.60;16.57;;;16.30;91.70;;;;;;5102974;28;20439;-82
2022/07/08 03:45:26;;;;;;;75.93;23.27;;;16.30;92.50;;;;;;5104769;28;20484;-82
2022/07/08 03:47:52;;;;;;;75.50;20.97;;;16.10;93.80;;;;;;5085177;28;20431;-83
2022/07/08 03:50:18;;;;;;;80.03;25.07;;;16.10;94.80;;;;;;5103296;28;20413;-82
2022/07/08 03:52:48;;;;;;;75.33;24.03;;;16.00;96.40;;;;;;5102653;28;20415;-83
2022/07/08 03:55:14;;;;;;;73.53;21.30;;;16.00;96.60;;;;;;5104054;28;20911;-83
2022/07/08 03:57:40;;;;;;;73.90;19.63;;;16.20;94.80;;;;;;5104516;28;20435;-83
2022/07/08 04:00:07;;;;;;;72.97;16.77;;;16.20;95.10;;;;;;5103316;28;20450;-83
2022/07/08 04:02:34;;;;;;;68.50;13.40;;;16.20;93.70;;;;;;5104259;28;20173;-83
2022/07/08 04:05:00;;;;;;;77.27;18.47;;;16.30;93.60;;;;;;5103676;28;20441;-83
2022/07/08 04:07:26;;;;;;;72.80;22.10;;;16.20;94.20;;;;;;5104283;28;20433;-83
2022/07/08 04:09:52;;;;;;;71.40;20.17;;;16.10;95.90;;;;;;5104047;28;20420;-83
2022/07/08 04:12:17;;;;;;;74.20;20.80;;;16.10;95.20;;;;;;5103672;28;20177;-83
2022/07/08 04:14:43;;;;;;;70.87;20.40;;;16.20;94.60;;;;;;5103848;28;20412;-83
2022/07/08 04:17:10;;;;;;;75.10;28.07;;;16.20;94.30;;;;;;5104012;28;20658;-83
2022/07/08 04:19:36;;;;;;;82.30;27.07;;;16.10;96.40;;;;;;5103537;28;20170;-83
2022/07/08 04:22:02;;;;;;;70.90;20.23;;;16.20;95.40;;;;;;5103298;28;20769;-83
2022/07/08 04:24:27;;;;;;;71.70;23.33;;;16.20;94.40;;;;;;5103823;28;20410;-83
2022/07/08 04:26:53;;;;;;;70.60;20.50;;;16.20;94.70;;;;;;5103648;28;20424;-83
2022/07/08 04:29:19;;;;;;;72.90;18.00;;;16.20;94.20;;;;;;5102935;28;20187;-83
2022/07/08 04:31:45;;;;;;;70.80;17.03;;;16.30;93.50;;;;;;5104527;28;20436;-83
2022/07/08 04:34:10;;;;;;;71.20;19.90;;;16.30;92.80;;;;;;5103731;28;20194;-83
2022/07/08 04:36:36;;;;;;;77.07;21.80;;;16.20;94.40;;;;;;5084726;28;20242;-83
2022/07/08 04:39:02;;;;;;;75.10;21.77;;;16.20;93.90;;;;;;5102118;28;20216;-83
2022/07/08 04:41:27;;;;;;;73.53;22.93;;;16.20;94.00;;;;;;5102527;28;20224;-83
2022/07/08 04:43:53;;;;;;;77.90;28.63;;;16.10;95.00;;;;;;5103352;28;20619;-83
2022/07/08 04:46:19;;;;;;;71.83;24.57;;;16.10;94.80;;;;;;5085046;28;20167;-83
2022/07/08 04:48:44;;;;;;;74.23;21.50;;;16.10;95.00;;;;;;5103328;28;20183;-83
2022/07/08 04:51:10;;;;;;;72.37;23.30;;;16.10;95.20;;;;;;5085438;28;20170;-83
2022/07/08 04:53:36;;;;;;;74.03;25.80;;;16.10;95.00;;;;;;5103491;28;20205;-83
2022/07/08 04:56:02;;;;;;;72.57;20.97;;;16.20;95.00;;;;;;5085412;28;20174;-83
2022/07/08 04:58:27;;;;;;;76.17;20.20;;;16.20;93.70;;;;;;5102620;28;20212;-83
2022/07/08 05:00:53;;;;;;;68.77;11.93;;;16.30;93.40;;;;;;5103040;28;20199;-83
2022/07/08 05:03:19;;;;;;;68.47;9.50;;;16.40;91.60;;;;;;5104551;28;20187;-84
2022/07/08 05:05:44;;;;;;;67.67;9.47;;;16.60;90.00;;;;;;5104371;28;20167;-83
2022/07/08 05:08:10;;;;;;;72.40;8.97;;;16.60;88.30;;;;;;5104751;28;20193;-83
2022/07/08 05:10:36;;;;;;;68.07;8.90;;;16.70;89.40;;;;;;5103519;28;20170;-83
2022/07/08 05:13:02;;;;;;;71.93;10.60;;;16.70;89.60;;;;;;5102613;28;20540;-83
2022/07/08 05:15:28;;;;;;;71.60;8.83;;;16.80;87.10;;;;;;5103080;28;20619;-83
2022/07/08 05:17:54;;;;;;;68.77;8.37;;;16.80;84.70;;;;;;5101712;28;20188;-83
2022/07/08 05:20:20;;;;;;;69.83;9.20;;;16.90;83.90;;;;;;5101106;28;20454;-83
2022/07/08 05:22:46;;;;;;;71.70;10.40;;;16.90;83.40;;;;;;5083264;28;20508;-83
2022/07/08 05:25:13;;;;;;;69.27;10.80;;;16.80;84.20;;;;;;5101060;28;20437;-83
2022/07/08 05:27:39;;;;;;;68.37;11.57;;;16.80;85.00;;;;;;5101593;28;20451;-83
2022/07/08 05:30:07;;;;;;;70.80;10.13;;;16.70;84.40;;;;;;5100689;28;20410;-83
2022/07/08 05:32:34;;;;;;;68.97;9.63;;;16.70;88.00;;;;;;5100748;28;20447;-83
2022/07/08 05:35:06;;;;;;;73.80;10.10;;;16.70;88.60;;;;;;5101601;28;20413;-83
2022/07/08 05:37:32;;;;;;;70.87;8.60;;;16.80;87.10;;;;;;5100765;28;20523;-83
2022/07/08 05:39:58;;;;;;;69.23;10.83;;;16.80;87.10;;;;;;5101293;28;20464;-82
2022/07/08 05:42:24;;;;;;;78.90;11.00;;;16.70;88.30;;;;;;5101063;28;20408;-83
2022/07/08 05:44:50;;;;;;;71.80;11.87;;;16.60;88.50;;;;;;5101193;28;20649;-83
2022/07/08 05:47:16;;;;;;;75.57;15.13;;;16.50;89.30;;;;;;5101151;28;20428;-84
2022/07/08 05:49:46;;;;;;;69.27;13.27;;;16.40;91.50;;;;;;5102801;28;20416;-83
2022/07/08 05:52:12;;;;;;;72.87;18.10;;;16.40;91.90;;;;;;5104258;28;20409;-83
2022/07/08 05:54:38;;;;;;;74.90;13.97;;;16.40;92.20;;;;;;5088301;28;20418;-83
2022/07/08 05:57:04;;;;;;;69.13;11.27;;;16.30;93.10;;;;;;5086496;28;20437;-83
2022/07/08 05:59:31;;;;;;;68.03;11.83;;;16.40;91.20;;;;;;5087314;28;20461;-82
2022/07/08 06:01:57;;;;;;;73.10;9.77;;;16.50;91.50;;;;;;5085398;28;20543;-83
2022/07/08 06:04:22;;;;;;;67.80;11.47;;;16.50;90.40;;;;;;5086674;28;20417;-83
2022/07/08 06:06:48;;;;;;;68.10;9.47;;;16.50;90.20;;;;;;5103073;28;20398;-83
2022/07/08 06:09:14;;;;;;;71.93;9.43;;;16.60;90.20;;;;;;5105070;28;20614;-82
2022/07/08 06:11:40;;;;;;;79.27;10.87;;;16.70;88.40;;;;;;5103713;28;20417;-82
2022/07/08 06:14:06;;;;;;;68.50;9.67;;;16.70;84.70;;;;;;5103142;28;20411;-82
2022/07/08 06:16:32;;;;;;;69.47;11.10;;;16.70;85.80;;;;;;5087156;28;20173;-83
2022/07/08 06:18:58;;;;;;;69.20;9.47;;;16.60;88.10;;;;;;5105139;28;20175;-82
2022/07/08 06:21:23;;;;;;;76.60;10.10;;;16.70;89.40;;;;;;5086974;28;20193;-83
2022/07/08 06:23:49;;;;;;;72.43;9.93;;;16.70;87.40;;;;;;5103850;28;20174;-82
2022/07/08 06:26:15;;;;;;;68.27;11.40;;;16.70;84.60;;;;;;5084839;28;20195;-82
2022/07/08 06:28:40;;;;;;;69.17;10.70;;;16.70;77.40;;;;;;5103699;28;20182;-83
2022/07/08 06:31:06;;;;;;;68.57;12.93;;;16.70;75.40;;;;;;5103128;28;20247;-83
2022/07/08 06:33:32;;;;;;;72.23;11.83;;;16.70;76.00;;;;;;5106010;28;20174;-82
2022/07/08 06:35:58;;;;;;;68.20;10.53;;;16.70;74.90;;;;;;5103390;28;20404;-83
2022/07/08 06:38:24;;;;;;;72.23;10.67;;;16.80;78.60;;;;;;5103850;28;20186;-82
2022/07/08 06:40:50;;;;;;;69.97;8.03;;;16.80;77.40;;;;;;5103484;28;20957;-82
2022/07/08 06:43:15;;;;;;;70.80;5.13;;;17.00;68.40;;;;;;5103794;28;20187;-82
2022/07/08 06:45:41;;;;;;;65.67;3.77;;;17.00;58.10;;;;;;5085417;28;20193;-83
2022/07/08 06:48:07;;;;;;;67.27;4.10;;;17.10;57.90;;;;;;5104297;28;20183;-82
2022/07/08 06:50:32;;;;;;;66.90;4.37;;;17.30;55.70;;;;;;5085795;28;20636;-82
2022/07/08 06:52:58;;;;;;;68.20;4.40;;;17.40;57.90;;;;;;5104582;28;20305;-82
2022/07/08 06:55:24;;;;;;;71.70;4.40;;;17.70;56.50;;;;;;5105678;28;20254;-82
2022/07/08 06:57:50;;;;;;;69.10;3.53;;;17.90;44.30;;;;;;5104012;28;20198;-83
2022/07/08 07:00:16;;;;;;;66.50;3.30;;;17.70;33.60;;;;;;5103281;28;20183;-82
2022/07/08 07:02:42;;;;;;;67.47;3.60;;;17.70;30.80;;;;;;5103543;28;20171;-82
2022/07/08 07:05:08;;;;;;;67.20;3.40;;;17.70;33.80;;;;;;5102953;28;20390;-82
2022/07/08 07:07:35;;;;;;;66.10;3.50;;;17.70;29.90;;;;;;5084193;28;20210;-82
2022/07/08 07:10:01;;;;;;;69.37;3.70;;;17.70;33.30;;;;;;5102718;28;20405;-82
2022/07/08 07:12:27;;;;;;;69.80;4.00;;;17.70;28.30;;;;;;5084547;28;20413;-83
2022/07/08 07:14:53;;;;;;;66.77;3.63;;;17.60;30.50;;;;;;5102978;28;20464;-82
2022/07/08 07:17:20;;;;;;;68.40;3.60;;;17.80;31.10;;;;;;5083282;28;20457;-82
2022/07/08 07:19:50;;;;;;;77.43;3.83;;;17.90;29.80;;;;;;5102034;28;20408;-82
2022/07/08 07:22:16;;;;;;;71.50;3.47;;;18.00;29.50;;;;;;5105398;28;20398;-82
2022/07/08 07:24:43;;;;;;;66.87;3.60;;;18.10;28.50;;;;;;5103658;28;20405;-82
2022/07/08 07:27:09;;;;;;;66.40;4.10;;;18.10;27.40;;;;;;5101984;28;20422;-82
2022/07/08 07:29:36;;;;;;;66.90;3.47;;;18.20;29.90;;;;;;5102312;28;20413;-82
2022/07/08 07:32:02;;;;;;;69.27;3.93;;;18.40;28.50;;;;;;5102924;28;20520;-82
2022/07/08 07:34:28;;;;;;;67.00;3.60;;;18.50;27.60;;;;;;5104083;28;20414;-82
2022/07/08 07:36:53;;;;;;;66.30;2.90;;;18.60;23.10;;;;;;5102755;28;20479;-83
2022/07/08 07:39:22;;;;;;;66.60;3.30;;;18.60;23.30;;;;;;5102256;28;20171;-82
2022/07/08 07:41:47;;;;;;;67.60;3.10;;;18.70;16.60;;;;;;5104923;28;20187;-83
2022/07/08 07:44:13;;;;;;;68.90;3.20;;;18.70;15.90;;;;;;5105147;28;20809;-83
2022/07/08 07:46:39;;;;;;;71.50;4.10;;;18.60;19.10;;;;;;5103589;28;20159;-82
2022/07/08 07:49:04;;;;;;;70.90;2.93;;;18.70;21.50;;;;;;5104775;28;20167;-82
2022/07/08 07:51:30;;;;;;;68.47;3.17;;;18.50;16.10;;;;;;5104545;28;20701;-82
2022/07/08 07:53:56;;;;;;;66.30;3.03;;;18.40;14.20;;;;;;5103813;28;20170;-82
2022/07/08 07:56:23;;;;;;;69.20;3.70;;;18.30;16.20;;;;;;5086181;28;20171;-82
2022/07/08 07:58:49;;;;;;;68.50;3.10;;;18.20;17.60;;;;;;5102375;28;20489;-82
2022/07/08 08:01:14;;;;;;;70.53;3.70;;;18.40;19.40;;;;;;5084274;28;20472;-82
2022/07/08 08:03:40;;;;;;;71.30;4.10;;;18.60;16.70;;;;;;5102080;28;20163;-82
2022/07/08 08:06:09;;;;;;;66.90;3.47;;;18.80;16.20;;;;;;5102508;28;20919;-82
2022/07/08 08:08:35;;;;;;;67.60;3.30;;;18.90;11.70;;;;;;5101842;28;20254;-83
2022/07/08 08:11:02;;;;;;;71.30;3.13;;;18.90;10.00;;;;;;5103644;28;20397;-83
2022/07/08 08:13:28;;;;;;;67.80;3.73;;;19.00;8.30;;;;;;5103100;28;20452;-83
2022/07/08 08:15:54;;;;;;;69.20;3.60;;;19.00;9.70;;;;;;5102139;28;20405;-82
2022/07/08 08:18:23;;;;;;;69.60;3.47;;;18.90;11.40;;;;;;5083538;28;20430;-83
2022/07/08 08:20:49;;;;;;;66.73;3.60;;;18.80;11.50;;;;;;5101107;28;20456;-83
2022/07/08 08:23:15;;;;;;;70.10;4.10;;;18.60;5.00;;;;;;5082766;28;20401;-83
2022/07/08 08:25:43;;;;;;;66.13;3.70;;;18.50;8.80;;;;;;5100248;28;20401;-83
2022/07/08 08:28:09;;;;;;;67.77;4.40;;;18.60;12.40;;;;;;5100291;28;20417;-82
2022/07/08 08:30:35;;;;;;;69.17;4.07;;;18.70;9.20;;;;;;5100270;28;20756;-82
2022/07/08 08:33:01;;;;;;;68.17;3.47;;;18.80;7.70;;;;;;5163039;22;20272;-87
2022/07/08 08:35:27;;;;;;;67.13;3.77;;;19.00;5.70;;;;;;5094407;28;20163;-87
2022/07/08 08:37:53;;;;;;;70.33;3.87;;;18.80;6.90;;;;;;5075998;28;20183;-88
2022/07/08 08:40:24;;;;;;;66.13;3.20;;;19.00;6.90;;;;;;5076223;28;20445;-88
2022/07/08 08:42:52;;;;;;;68.60;5.10;;;19.10;6.80;;;;;;5094885;28;20386;-88
2022/07/08 08:45:21;;;;;;;67.83;4.40;;;19.00;1.00;;;;;;5076320;28;20809;-88
2022/07/08 08:47:51;;;;;;;70.03;4.20;;;18.90;2.90;;;;;;5075915;28;20839;-88
2022/07/08 08:53:05;;;;;;;66.60;3.27;;;19.00;4.30;;;;;;5094693;28;20376;-87
2022/07/08 08:55:33;;;;;;;67.37;4.87;;;18.90;4.90;;;;;;5094403;28;20896;-88
2022/07/08 08:58:01;;;;;;;69.43;4.87;;;19.00;1.90;;;;;;5075765;28;20987;-87
2022/07/08 09:00:28;;;;;;;66.57;4.30;;;18.90;1.50;;;;;;5093835;28;20445;-87
2022/07/08 09:02:55;;;;;;;72.50;4.40;;;18.90;1.00;;;;;;5075711;28;20401;-88
2022/07/08 09:05:23;;;;;;;68.77;4.40;;;18.90;2.70;;;;;;5094625;28;20430;-87
2022/07/08 09:07:50;;;;;;;71.67;4.83;;;19.00;2.50;;;;;;5075793;28;20430;-87
2022/07/08 09:10:17;;;;;;;71.57;6.10;;;19.20;3.50;;;;;;5093790;28;20457;-88
2022/07/08 09:13:10;;;;;;;67.43;6.33;;;19.40;1.00;;;;;;5093589;28;20411;-88
2022/07/08 09:15:44;;;;;;;68.37;5.53;;;19.40;1.00;;;;;;5094031;28;20440;-87
2022/07/08 09:18:15;;;;;;;69.33;6.20;;;19.40;1.00;;;;;;5093709;28;20417;-88
2022/07/08 09:20:52;;;;;;;69.93;7.30;;;19.40;1.00;;;;;;5093885;28;20800;-88
2022/07/08 09:23:32;;;;;;;70.23;5.70;;;19.50;1.00;;;;;;5093554;28;20431;-88
2022/07/08 09:26:17;;;;;;;68.60;6.33;;;19.50;1.00;;;;;;5093441;28;20422;-89
2022/07/08 09:28:49;;;;;;;68.37;6.40;;;19.50;1.00;;;;;;5075559;28;20472;-88
2022/07/08 09:31:16;;;;;;;69.10;5.53;;;19.50;1.00;;;;;;5075689;28;20599;-86
2022/07/08 09:33:43;;;;;;;66.57;5.27;;;19.50;1.00;;;;;;5075354;28;20441;-87
2022/07/08 09:36:12;;;;;;;68.00;7.27;;;19.60;1.00;;;;;;5093567;28;20485;-88
2022/07/08 09:39:18;;;;;;;70.80;6.97;;;19.70;1.00;;;;;;5093552;28;20526;-88
2022/07/08 09:42:25;;;;;;;67.47;6.80;;;20.00;1.00;;;;;;5092541;28;20460;-88
2022/07/08 09:45:05;;;;;;;73.53;8.33;;;20.00;1.00;;;;;;5066503;28;20429;-88
2022/07/08 09:47:34;;;;;;;67.80;6.57;;;20.00;1.00;;;;;;5093660;28;20939;-88
2022/07/08 09:50:03;;;;;;;70.10;6.10;;;20.10;1.00;;;;;;5093624;28;20402;-87
2022/07/08 09:52:34;;;;;;;68.27;4.70;;;20.30;1.00;;;;;;5093439;28;20814;-88
2022/07/08 09:55:02;;;;;;;68.20;4.27;;;20.50;1.00;;;;;;5093404;28;20398;-88
2022/07/08 09:57:29;;;;;;;66.83;3.63;;;20.70;1.00;;;;;;5093498;28;20426;-88
2022/07/08 10:00:01;;;;;;;67.87;3.90;;;20.80;1.00;;;;;;5095023;28;20405;-88
2022/07/08 10:02:28;;;;;;;68.20;3.60;;;20.80;1.00;;;;;;5076414;28;20470;-86
2022/07/08 10:04:55;;;;;;;71.30;3.40;;;21.00;1.00;;;;;;5093775;28;20429;-87
2022/07/08 10:07:30;;;;;;;68.37;3.40;;;21.00;1.00;;;;;;5074763;28;21028;-88
2022/07/08 10:09:59;;;;;;;70.00;3.47;;;21.00;1.00;;;;;;5093112;28;20394;-87
2022/07/08 10:12:25;;;;;;;67.33;3.13;;;21.10;1.00;;;;;;5093040;28;20758;-87
2022/07/08 10:15:13;;;;;;;68.97;3.63;;;21.00;1.00;;;;;;5075169;28;20452;-88
2022/07/08 10:17:44;;;;;;;68.40;3.30;;;21.10;1.00;;;;;;5075139;28;20437;-87
2022/07/08 10:20:35;;;;;;;67.53;2.93;;;21.40;1.00;;;;;;5093213;28;20832;-88
2022/07/08 10:23:21;;;;;;;69.00;3.10;;;21.60;1.00;;;;;;5092671;28;20409;-88
2022/07/08 10:26:08;;;;;;;66.97;3.07;;;21.80;1.00;;;;;;5093054;28;20385;-87
2022/07/08 10:28:38;;;;;;;67.60;2.80;;;22.10;1.00;;;;;;5074978;28;20429;-88
2022/07/08 10:31:29;;;;;;;69.60;3.03;;;22.30;1.00;;;;;;5075562;28;20415;-87
2022/07/08 10:34:43;;;;;;;68.70;2.90;;;22.40;1.00;;;;;;5093499;28;20483;-88
2022/07/08 10:37:55;;;;;;;65.77;2.40;;;22.60;1.00;;;;;;4975176;28;20449;-87
2022/07/08 10:41:15;;;;;;;;;;;;;;;;;;;;;
2022/07/08 10:44:48;;;;;;;66.90;2.60;;;23.30;1.00;;;;;;4977179;28;20413;-88
2022/07/08 10:47:31;;;;;;;;;;;;;;;;;;;;;
2022/07/08 10:50:16;;;;;;;67.30;2.47;;;23.60;1.00;;;;;;4993377;28;20408;-88
2022/07/08 10:52:42;;;;;;;67.67;2.17;;;23.90;1.00;;;;;;4995740;28;20405;-88
2022/07/08 10:56:15;;;;;;;70.20;2.73;;;24.00;1.00;;;;;;4995440;28;20915;-87
2022/07/08 10:59:36;;;;;;;67.10;2.80;;;23.90;1.00;;;;;;5114660;22;20218;-87
2022/07/08 11:02:13;;;;;;;66.97;3.00;;;23.90;1.00;;;;;;5075012;28;20463;-86
2022/07/08 11:04:47;;;;;;;69.97;2.97;;;23.90;1.00;;;;;;5076531;28;20378;-86
2022/07/08 11:07:31;;;;;;;76.43;3.60;;;23.70;1.00;;;;;;5074942;28;20468;-86
2022/07/08 11:10:05;;;;;;;69.00;2.57;;;23.80;1.00;;;;;;5074498;28;20433;-85
2022/07/08 11:12:50;;;;;;;67.17;2.70;;;23.90;1.00;;;;;;5076195;28;20397;-87
2022/07/08 11:15:17;;;;;;;68.47;3.30;;;23.80;1.00;;;;;;5077266;28;20412;-86
2022/07/08 11:17:54;;;;;;;68.97;3.00;;;23.50;1.00;;;;;;5076155;28;20422;-86
2022/07/08 11:20:30;;;;;;;66.37;3.03;;;23.40;1.00;;;;;;5075973;28;20527;-87
2022/07/08 11:23:04;;;;;;;68.27;2.47;;;23.50;1.00;;;;;;5075804;28;20402;-86
2022/07/08 11:25:35;;;;;;;66.97;2.73;;;23.50;1.00;;;;;;5075638;28;20375;-86
2022/07/08 11:28:01;;;;;;;67.37;2.93;;;23.40;1.00;;;;;;5074771;28;21013;-85
2022/07/08 11:30:30;;;;;;;69.73;3.27;;;23.50;1.00;;;;;;5074544;28;20411;-86
2022/07/08 11:32:58;;;;;;;65.50;2.40;;;23.90;1.00;;;;;;5074014;28;20411;-85
2022/07/08 11:35:27;;;;;;;65.77;2.13;;;24.10;1.00;;;;;;5075681;28;20410;-86
2022/07/08 11:37:55;;;;;;;66.27;2.37;;;24.30;1.00;;;;;;5073971;28;20438;-86
2022/07/08 11:40:24;;;;;;;65.80;2.00;;;24.40;1.00;;;;;;5074271;28;20458;-86
2022/07/08 11:42:50;;;;;;;69.97;2.97;;;24.20;1.00;;;;;;5074295;28;20430;-87
2022/07/08 11:45:15;;;;;;;66.40;2.40;;;24.40;1.00;;;;;;5073862;28;20446;-86
2022/07/08 11:47:44;;;;;;;73.73;2.40;;;24.50;1.00;;;;;;5075177;28;20596;-87
2022/07/08 11:50:10;;;;;;;68.83;2.50;;;24.60;1.00;;;;;;5074168;28;20169;-85
2022/07/08 11:52:36;;;;;;;72.10;2.93;;;24.70;1.00;;;;;;5075031;28;20421;-85
2022/07/08 11:55:07;;;;;;;66.10;3.10;;;24.80;1.00;;;;;;5074919;28;20830;-86
2022/07/08 11:57:38;;;;;;;69.53;3.00;;;24.90;1.00;;;;;;5073479;28;20264;-86
2022/07/08 12:00:05;;;;;;;66.20;2.40;;;24.90;1.00;;;;;;5074838;28;20759;-86
2022/07/08 12:02:36;;;;;;;66.30;2.63;;;24.80;1.00;;;;;;5074865;28;20398;-86
2022/07/08 12:05:08;;;;;;;68.60;2.50;;;24.90;1.00;;;;;;5073476;28;20503;-86
2022/07/08 12:07:34;;;;;;;67.07;2.30;;;24.70;1.00;;;;;;5073710;28;20427;-86
2022/07/08 12:10:03;;;;;;;68.07;2.70;;;24.40;1.00;;;;;;5074223;28;20403;-87
2022/07/08 12:12:33;;;;;;;66.67;2.13;;;24.50;1.00;;;;;;5074670;28;20435;-87
2022/07/08 12:15:16;;;;;;;66.37;2.63;;;24.80;1.00;;;;;;5075158;28;20930;-86
2022/07/08 12:17:42;;;;;;;66.47;2.50;;;24.90;1.00;;;;;;5074507;28;20426;-86
2022/07/08 12:20:08;;;;;;;67.10;2.80;;;25.00;1.00;;;;;;5076458;28;20477;-84
2022/07/08 12:22:47;;;;;;;70.70;2.80;;;25.00;1.00;;;;;;5074568;28;20921;-84
2022/07/08 12:25:17;;;;;;;67.00;2.30;;;25.30;1.00;;;;;;5074886;28;20802;-85
2022/07/08 12:27:44;;;;;;;67.10;2.70;;;25.40;1.00;;;;;;5074437;28;20521;-84
2022/07/08 12:30:11;;;;;;;67.80;2.80;;;25.40;1.00;;;;;;5075065;28;20443;-84
2022/07/08 12:32:41;;;;;;;70.33;2.77;;;25.20;1.00;;;;;;5074497;28;20404;-85
2022/07/08 12:35:11;;;;;;;65.90;2.53;;;24.70;1.00;;;;;;5074700;28;20765;-85
2022/07/08 12:37:38;;;;;;;67.10;2.30;;;24.50;1.00;;;;;;5074371;28;20887;-85
2022/07/08 12:40:16;;;;;;;67.17;2.70;;;24.80;1.00;;;;;;5072737;28;20500;-85
2022/07/08 12:42:43;;;;;;;68.83;3.17;;;25.10;1.00;;;;;;5072784;28;20449;-84
2022/07/08 12:45:16;;;;;;;69.27;5.13;;;25.60;1.00;;;;;;5074344;28;20987;-84
2022/07/08 12:47:42;;;;;;;65.77;3.23;;;25.80;1.00;;;;;;5074466;28;20849;-84
2022/07/08 12:50:09;;;;;;;65.63;2.47;;;25.60;1.00;;;;;;5074427;28;20424;-84
2022/07/08 12:52:34;;;;;;;67.10;3.20;;;25.40;1.00;;;;;;5074232;28;20938;-85